createdAt,value
2019-05-21T00:02:24.318Z,15.15
2019-05-21T00:04:55.515Z,16.23
2019-05-21T00:07:28.442Z,13.22
2019-05-21T00:10:00.030Z,13.10
2019-05-21T00:12:32.634Z,13.15
2019-05-21T00:15:05.603Z,12.20
2019-05-21T00:17:36.667Z,13.45
2019-05-21T00:20:08.927Z,17.40
2019-05-21T00:22:40.023Z,14.33
2019-05-21T00:25:11.364Z,12.65
2019-05-21T00:27:42.404Z,14.85
2019-05-21T00:30:50.635Z,13.68
2019-05-21T00:33:58.423Z,11.55
2019-05-21T00:37:07.493Z,11.33
2019-05-21T00:40:14.272Z,13.78
2019-05-21T00:42:46.371Z,13.03
2019-05-21T00:45:17.431Z,14.18
2019-05-21T00:47:48.475Z,17.27
2019-05-21T00:50:21.105Z,12.80
2019-05-21T00:52:54.723Z,13.93
2019-05-21T00:55:25.802Z,13.55
2019-05-21T00:57:56.862Z,17.12
2019-05-21T01:00:27.959Z,14.65
2019-05-21T01:02:59.013Z,14.40
2019-05-21T01:05:30.023Z,15.15
2019-05-21T01:08:01.988Z,12.07
2019-05-21T01:10:33.027Z,16.30
2019-05-21T01:13:04.117Z,12.33
2019-05-21T01:15:35.209Z,12.30
2019-05-21T01:18:07.937Z,12.82
2019-05-21T01:20:39.121Z,15.78
2019-05-21T01:23:14.985Z,16.10
2019-05-21T01:25:46.119Z,12.93
2019-05-21T01:28:17.197Z,15.98
2019-05-21T01:30:48.213Z,18.82
2019-05-21T01:33:19.282Z,19.25
2019-05-21T01:35:51.927Z,16.52
2019-05-21T01:38:26.356Z,17.73
2019-05-21T01:40:59.747Z,17.67
2019-05-21T01:43:30.832Z,21.50
2019-05-21T01:46:01.847Z,19.00
2019-05-21T01:48:34.337Z,19.17
2019-05-21T01:51:06.905Z,20.00
2019-05-21T01:53:37.971Z,15.85
2019-05-21T01:56:08.995Z,19.67
2019-05-21T01:58:43.092Z,17.35
2019-05-21T02:01:14.136Z,17.42
2019-05-21T02:04:03.026Z,17.82
2019-05-21T02:06:37.327Z,17.48
2019-05-21T02:09:10.885Z,15.75
2019-05-21T02:11:43.871Z,16.20
2019-05-21T02:14:14.940Z,16.07
2019-05-21T02:16:48.254Z,20.23
2019-05-21T02:19:21.122Z,17.15
2019-05-21T02:21:53.720Z,18.75
2019-05-21T02:24:25.612Z,17.82
2019-05-21T02:26:59.810Z,21.23
2019-05-21T02:29:30.927Z,19.02
2019-05-21T02:32:03.485Z,16.25
2019-05-21T02:34:35.513Z,20.37
2019-05-21T02:37:07.415Z,21.37
2019-05-21T02:39:39.366Z,20.82
2019-05-21T02:42:12.011Z,22.73
2019-05-21T02:44:43.075Z,20.70
2019-05-21T02:47:14.112Z,22.07
2019-05-21T02:49:45.217Z,20.77
2019-05-21T02:52:16.320Z,17.52
2019-05-21T02:54:47.434Z,20.82
2019-05-21T02:57:18.481Z,19.95
2019-05-21T02:59:51.111Z,16.73
2019-05-21T03:02:31.365Z,15.75
2019-05-21T03:05:04.807Z,19.15
2019-05-21T03:07:35.936Z,15.48
2019-05-21T03:10:08.873Z,17.73
2019-05-21T03:12:39.899Z,16.35
2019-05-21T03:15:10.962Z,15.75
2019-05-21T03:17:42.021Z,17.45
2019-05-21T03:20:13.479Z,15.58
2019-05-21T03:22:44.535Z,16.00
2019-05-21T03:25:16.520Z,16.85
2019-05-21T03:27:47.617Z,16.73
2019-05-21T03:30:21.932Z,14.85
2019-05-21T03:32:53.218Z,14.98
2019-05-21T03:35:24.263Z,19.95
2019-05-21T03:37:58.391Z,21.10
2019-05-21T03:40:31.793Z,15.05
2019-05-21T03:43:02.861Z,16.55
2019-05-21T03:45:34.064Z,15.75
2019-05-21T03:48:05.126Z,14.75
2019-05-21T03:50:36.170Z,17.35
2019-05-21T03:53:07.203Z,15.55
2019-05-21T03:55:40.154Z,13.48
2019-05-21T03:58:11.195Z,13.20
2019-05-21T04:00:42.221Z,15.00
2019-05-21T04:03:14.837Z,13.85
2019-05-21T04:05:45.889Z,16.07
2019-05-21T04:08:16.979Z,17.20
2019-05-21T04:10:49.016Z,14.33
2019-05-21T04:13:20.045Z,15.63
2019-05-21T04:15:55.679Z,14.85
2019-05-21T04:18:31.055Z,16.62
2019-05-21T04:21:02.123Z,18.70
2019-05-21T04:23:33.176Z,15.93
2019-05-21T04:26:08.229Z,16.07
2019-05-21T04:28:39.276Z,16.27
2019-05-21T04:31:10.354Z,16.30
2019-05-21T04:33:41.373Z,17.85
2019-05-21T04:36:14.138Z,14.60
2019-05-21T04:38:45.967Z,17.95
2019-05-21T04:41:17.081Z,18.98
2019-05-21T04:43:48.120Z,16.50
2019-05-21T04:46:19.219Z,16.50
2019-05-21T04:48:51.817Z,16.87
2019-05-21T04:51:22.866Z,23.07
2019-05-21T04:53:53.935Z,23.27
2019-05-21T04:56:25.912Z,23.80
2019-05-21T04:58:56.927Z,17.98
2019-05-21T05:01:27.997Z,18.87
2019-05-21T05:03:59.041Z,17.02
2019-05-21T05:06:30.124Z,21.02
2019-05-21T05:09:01.163Z,18.27
2019-05-21T05:11:33.081Z,19.42
2019-05-21T05:14:04.249Z,18.95
2019-05-21T05:16:36.739Z,18.12
2019-05-21T05:19:08.153Z,17.92
2019-05-21T05:21:39.254Z,17.17
2019-05-21T05:24:13.389Z,16.90
2019-05-21T05:26:45.270Z,21.40
2019-05-21T05:29:16.382Z,19.48
2019-05-21T05:31:47.425Z,20.72
2019-05-21T05:34:18.475Z,17.37
2019-05-21T05:36:51.172Z,17.27
2019-05-21T05:39:23.116Z,16.93
2019-05-21T05:41:54.161Z,16.97
2019-05-21T05:44:25.248Z,17.15
2019-05-21T05:46:57.126Z,17.50
2019-05-21T05:49:32.720Z,18.20
2019-05-21T05:52:03.777Z,16.50
2019-05-21T05:54:34.854Z,18.98
2019-05-21T05:57:07.489Z,18.87
2019-05-21T05:59:38.551Z,18.12
2019-05-21T06:02:09.624Z,19.15
2019-05-21T06:04:40.652Z,18.23
2019-05-21T06:07:12.532Z,16.20
2019-05-21T06:09:43.572Z,19.17
2019-05-21T06:12:15.490Z,17.95
2019-05-21T06:14:46.580Z,19.35
2019-05-21T06:17:17.931Z,20.45
2019-05-21T06:19:49.043Z,20.43
2019-05-21T06:22:20.203Z,19.77
2019-05-21T06:24:51.307Z,21.05
2019-05-21T06:27:23.204Z,21.00
2019-05-21T06:29:54.323Z,20.43
2019-05-21T06:32:25.452Z,21.77
2019-05-21T06:34:56.462Z,19.95
2019-05-21T06:37:28.201Z,21.82
2019-05-21T06:40:00.135Z,21.82
2019-05-21T06:42:31.309Z,21.35
2019-05-21T06:45:02.746Z,22.15
2019-05-21T06:47:34.276Z,25.25
2019-05-21T06:50:06.901Z,24.52
2019-05-21T06:52:38.117Z,23.12
2019-05-21T06:55:11.387Z,22.85
2019-05-21T06:57:43.370Z,22.25
2019-05-21T07:00:14.794Z,23.50
2019-05-21T07:02:45.898Z,24.10
2019-05-21T07:05:20.218Z,24.95
2019-05-21T07:07:54.087Z,24.87
2019-05-21T07:10:25.138Z,24.57
2019-05-21T07:12:57.178Z,25.57
2019-05-21T07:15:28.202Z,26.95
2019-05-21T07:17:59.336Z,25.90
2019-05-21T07:20:30.373Z,25.72
2019-05-21T07:23:04.567Z,27.22
2019-05-21T07:25:35.808Z,27.98
2019-05-21T07:28:06.972Z,26.45
2019-05-21T07:30:38.055Z,29.70
2019-05-21T07:33:09.253Z,30.20
2019-05-21T07:35:40.308Z,28.10
2019-05-21T07:38:12.850Z,26.90
2019-05-21T07:40:44.722Z,25.65
2019-05-21T07:43:15.820Z,25.55
2019-05-21T07:45:46.860Z,25.40
2019-05-21T07:48:17.939Z,24.47
2019-05-21T07:50:48.982Z,25.02
2019-05-21T07:53:20.187Z,25.35
2019-05-21T07:55:52.828Z,25.20
2019-05-21T07:58:26.161Z,26.10
2019-05-21T08:01:00.939Z,24.27
2019-05-21T08:03:29.994Z,22.73
2019-05-21T08:06:01.092Z,23.75
2019-05-21T08:08:33.682Z,23.18
2019-05-21T08:11:04.775Z,21.93
2019-05-21T08:13:36.676Z,20.90
2019-05-21T08:16:09.217Z,22.25
2019-05-21T08:18:40.286Z,24.35
2019-05-21T08:21:11.331Z,21.90
2019-05-21T08:23:42.392Z,21.80
2019-05-21T08:26:13.431Z,25.57
2019-05-21T08:28:46.085Z,20.45
2019-05-21T08:31:17.171Z,20.88
2019-05-21T08:33:48.272Z,20.50
2019-05-21T08:36:20.758Z,19.20
2019-05-21T08:38:52.004Z,18.73
2019-05-21T08:41:26.162Z,21.62
2019-05-21T08:43:57.491Z,19.45
2019-05-21T08:46:28.540Z,28.42
2019-05-21T08:49:00.504Z,20.00
2019-05-21T08:51:31.563Z,20.80
2019-05-21T08:54:02.663Z,24.35
2019-05-21T08:56:33.713Z,21.05
2019-05-21T08:59:04.785Z,21.73
2019-05-21T09:01:35.932Z,23.73
2019-05-21T09:04:06.999Z,24.05
2019-05-21T09:06:39.560Z,24.12
2019-05-21T09:09:10.659Z,24.23
2019-05-21T09:11:41.742Z,21.07
2019-05-21T09:14:15.270Z,23.95
2019-05-21T09:16:46.309Z,22.90
2019-05-21T09:19:17.387Z,24.07
2019-05-21T09:21:48.494Z,22.77
2019-05-21T09:24:21.056Z,19.95
2019-05-21T09:26:52.068Z,20.88
2019-05-21T09:29:24.048Z,18.52
2019-05-21T09:31:55.143Z,21.37
2019-05-21T09:34:26.272Z,22.77
2019-05-21T09:36:58.741Z,23.70
2019-05-21T09:39:32.795Z,22.45
2019-05-21T09:42:03.837Z,21.15
2019-05-21T09:44:37.590Z,19.85
2019-05-21T09:47:08.639Z,22.27
2019-05-21T09:49:39.736Z,18.17
2019-05-21T09:52:12.347Z,21.97
2019-05-21T09:54:43.409Z,15.38
2019-05-21T09:57:16.009Z,21.57
2019-05-21T09:59:49.548Z,21.23
2019-05-21T10:02:22.165Z,22.27
2019-05-21T10:04:53.240Z,22.93
2019-05-21T10:07:39.053Z,20.97
2019-05-21T10:09:57.073Z,22.37
2019-05-21T10:12:28.142Z,20.30
2019-05-21T10:15:00.066Z,21.52
2019-05-21T10:17:34.282Z,19.17
2019-05-21T10:20:07.121Z,18.37
2019-05-21T10:22:38.247Z,19.07
2019-05-21T10:25:10.880Z,17.37
2019-05-21T10:27:41.996Z,18.25
2019-05-21T10:30:14.254Z,16.57
2019-05-21T10:32:45.331Z,15.53
2019-05-21T10:35:16.430Z,14.98
2019-05-21T10:37:54.930Z,12.90
2019-05-21T10:40:20.331Z,13.83
2019-05-21T10:42:51.361Z,12.37
2019-05-21T10:45:22.442Z,13.28
2019-05-21T10:47:53.501Z,12.23
2019-05-21T10:50:26.137Z,11.88
2019-05-21T10:52:57.275Z,11.33
2019-05-21T10:55:28.321Z,10.75
2019-05-21T10:57:59.469Z,11.78
2019-05-21T11:00:31.669Z,9.45
2019-05-21T11:03:13.375Z,10.13
2019-05-21T11:05:46.187Z,8.90
2019-05-21T11:08:25.405Z,7.80
2019-05-21T11:10:49.998Z,8.80
2019-05-21T11:13:21.035Z,9.28
2019-05-21T11:15:52.119Z,8.70
2019-05-21T11:18:23.155Z,6.87
2019-05-21T11:20:55.757Z,8.05
2019-05-21T11:23:26.787Z,7.25
2019-05-21T11:25:57.937Z,6.72
2019-05-21T11:30:11.354Z,11.15
2019-05-21T11:31:09.234Z,5.25
2019-05-21T11:33:41.867Z,5.37
2019-05-21T11:36:12.956Z,4.87
2019-05-21T11:38:43.986Z,5.00
2019-05-21T11:41:15.150Z,6.15
2019-05-21T11:43:47.124Z,5.35
2019-05-21T11:46:18.171Z,6.50
2019-05-21T11:48:50.643Z,6.08
2019-05-21T11:51:21.731Z,5.65
2019-05-21T11:53:53.114Z,6.30
2019-05-21T11:56:25.683Z,5.87
2019-05-21T11:58:56.753Z,5.80
2019-05-21T12:01:27.838Z,6.30
2019-05-21T12:04:00.466Z,6.10
2019-05-21T12:06:31.520Z,6.40
2019-05-21T12:09:02.588Z,9.28
2019-05-21T12:11:36.626Z,8.75
2019-05-21T12:14:07.759Z,6.30
2019-05-21T12:16:39.649Z,6.60
2019-05-21T12:19:12.299Z,6.42
2019-05-21T12:21:43.420Z,7.37
2019-05-21T12:24:16.144Z,7.83
2019-05-21T12:26:52.607Z,8.00
2019-05-21T12:29:27.715Z,7.17
2019-05-21T12:32:02.276Z,6.67
2019-05-21T12:34:38.938Z,7.87
2019-05-21T12:37:09.249Z,7.58
2019-05-21T12:39:41.919Z,7.37
2019-05-21T12:42:17.720Z,7.90
2019-05-21T12:44:45.842Z,5.97
2019-05-21T12:47:21.073Z,7.53
2019-05-21T12:49:55.303Z,5.78
2019-05-21T12:52:26.406Z,6.10
2019-05-21T12:54:57.553Z,5.33
2019-05-21T12:57:35.894Z,5.87
2019-05-21T13:00:03.194Z,5.78
2019-05-21T13:02:36.315Z,7.33
2019-05-21T13:05:11.203Z,5.83
2019-05-21T13:07:41.824Z,6.08
2019-05-21T13:10:22.405Z,5.42
2019-05-21T13:12:50.062Z,5.60
2019-05-21T13:15:21.216Z,6.65
2019-05-21T13:17:55.070Z,7.45
2019-05-21T13:20:27.764Z,8.23
2019-05-21T13:22:58.797Z,7.33
2019-05-21T13:25:29.858Z,6.12
2019-05-21T13:28:04.444Z,6.45
2019-05-21T13:30:36.764Z,6.40
2019-05-21T13:33:08.741Z,5.70
2019-05-21T13:35:39.870Z,7.83
2019-05-21T13:38:13.531Z,7.12
2019-05-21T13:40:43.862Z,6.50
2019-05-21T13:43:22.065Z,7.28
2019-05-21T13:45:56.602Z,7.65
2019-05-21T13:48:28.552Z,6.62
2019-05-21T13:50:59.716Z,8.95
2019-05-21T13:53:32.435Z,7.08
2019-05-21T13:56:04.746Z,6.70
2019-05-21T13:58:37.408Z,7.37
2019-05-21T14:01:09.432Z,8.95
2019-05-21T14:03:45.909Z,8.90
2019-05-21T14:06:20.369Z,8.40
2019-05-21T14:08:52.738Z,10.58
2019-05-21T14:11:23.875Z,7.22
2019-05-21T14:13:54.990Z,7.35
2019-05-21T14:16:26.057Z,7.50
2019-05-21T14:18:58.113Z,7.60
2019-05-21T14:21:30.391Z,6.67
2019-05-21T14:24:01.490Z,6.58
2019-05-21T14:26:32.600Z,6.47
2019-05-21T14:29:06.841Z,8.33
2019-05-21T14:31:40.888Z,6.30
2019-05-21T14:34:17.100Z,6.25
2019-05-21T14:36:49.739Z,6.90
2019-05-21T14:39:20.776Z,6.53
2019-05-21T14:41:51.838Z,8.23
2019-05-21T14:44:22.921Z,8.18
2019-05-21T14:46:54.804Z,7.80
2019-05-21T14:49:29.317Z,6.08
2019-05-21T14:52:00.318Z,6.65
2019-05-21T14:54:31.422Z,7.30
2019-05-21T14:57:04.038Z,6.70
2019-05-21T14:59:35.109Z,7.00
2019-05-21T15:02:07.560Z,6.50
2019-05-21T15:04:39.004Z,6.72
2019-05-21T15:07:10.337Z,7.92
2019-05-21T15:09:41.469Z,6.67
2019-05-21T15:12:14.711Z,7.08
2019-05-21T15:14:46.322Z,6.90
2019-05-21T15:17:17.478Z,6.65
2019-05-21T15:19:50.087Z,7.05
2019-05-21T15:22:22.383Z,8.05
2019-05-21T15:24:53.438Z,6.67
2019-05-21T15:27:29.456Z,5.62
2019-05-21T15:30:00.588Z,7.65
2019-05-21T15:32:31.675Z,7.15
2019-05-21T15:35:04.337Z,6.50
2019-05-21T15:37:37.960Z,5.80
2019-05-21T15:40:11.186Z,12.20
2019-05-21T15:42:42.314Z,21.87
2019-05-21T15:45:14.993Z,6.80
2019-05-21T15:47:47.796Z,7.03
2019-05-21T15:50:18.874Z,12.50
2019-05-21T15:52:53.095Z,11.78
2019-05-21T15:55:24.139Z,8.15
2019-05-21T15:57:55.232Z,16.42
2019-05-21T16:00:27.211Z,14.18
2019-05-21T16:02:58.390Z,10.63
2019-05-21T16:05:32.075Z,11.38
2019-05-21T16:08:04.811Z,8.18
2019-05-21T16:10:35.912Z,9.68
2019-05-21T16:13:07.964Z,9.50
2019-05-21T16:15:40.714Z,11.63
2019-05-21T16:18:11.857Z,8.55
2019-05-21T16:20:43.033Z,10.60
2019-05-21T16:23:16.489Z,11.00
2019-05-21T16:25:47.577Z,9.73
2019-05-21T16:28:18.672Z,9.58
2019-05-21T16:30:51.333Z,8.10
2019-05-21T16:33:22.426Z,9.60
2019-05-21T16:35:53.472Z,13.28
2019-05-21T16:38:25.349Z,13.10
2019-05-21T16:40:56.410Z,9.48
2019-05-21T16:43:27.454Z,9.20
2019-05-21T16:45:58.526Z,10.25
2019-05-21T16:48:33.448Z,10.60
2019-05-21T16:51:04.585Z,11.38
2019-05-21T16:53:36.680Z,12.78
2019-05-21T16:56:07.780Z,15.05
2019-05-21T16:58:40.518Z,14.75
2019-05-21T17:01:11.953Z,10.38
2019-05-21T17:03:43.083Z,13.70
2019-05-21T17:06:14.117Z,13.05
2019-05-21T17:08:45.345Z,9.43
2019-05-21T17:11:17.905Z,10.18
2019-05-21T17:13:48.984Z,15.45
2019-05-21T17:16:20.618Z,10.43
2019-05-21T17:18:51.753Z,12.00
2019-05-21T17:21:22.819Z,14.05
2019-05-21T17:23:54.824Z,14.00
2019-05-21T17:26:26.216Z,10.65
2019-05-21T17:28:57.281Z,11.43
2019-05-21T17:31:31.652Z,13.70
2019-05-21T17:34:02.766Z,10.50
2019-05-21T17:36:35.458Z,13.32
2019-05-21T17:39:08.387Z,10.70
2019-05-21T17:41:39.439Z,10.50
2019-05-21T17:44:12.109Z,13.83
2019-05-21T17:46:43.159Z,12.75
2019-05-21T17:49:17.636Z,11.38
2019-05-21T17:51:50.491Z,13.95
2019-05-21T17:54:26.613Z,9.93
2019-05-21T17:56:58.604Z,11.75
2019-05-21T17:59:29.754Z,9.75
2019-05-21T18:02:05.242Z,17.15
2019-05-21T18:04:39.807Z,12.07
2019-05-21T18:07:12.501Z,14.23
2019-05-21T18:09:45.232Z,12.35
2019-05-21T18:12:31.263Z,12.98
2019-05-21T18:14:55.922Z,15.50
2019-05-21T18:17:42.667Z,12.23
2019-05-21T18:20:26.333Z,13.88
2019-05-21T18:26:58.883Z,22.48
2019-05-21T18:33:09.203Z,15.15
2019-05-21T18:35:40.607Z,16.48
2019-05-21T18:38:16.694Z,14.83
2019-05-21T18:40:47.913Z,15.13
2019-05-21T18:43:19.384Z,18.23
2019-05-21T18:45:50.582Z,15.60
2019-05-21T18:49:01.331Z,14.60
2019-05-21T18:51:34.075Z,13.58
2019-05-21T18:58:21.707Z,14.13
2019-05-21T18:59:23.101Z,13.18
2019-05-21T19:01:54.595Z,13.68
2019-05-21T19:04:30.678Z,13.20
2019-05-21T19:07:05.408Z,13.48
2019-05-21T19:09:37.125Z,14.90
2019-05-21T19:12:10.005Z,19.45
2019-05-21T19:14:45.251Z,20.82
2019-05-21T19:17:17.225Z,17.62
2019-05-21T19:19:48.397Z,22.20
2019-05-21T19:22:21.335Z,27.30
2019-05-21T19:24:52.968Z,24.55
2019-05-21T19:27:25.082Z,18.00
2019-05-21T19:29:57.484Z,17.37
2019-05-21T19:32:32.153Z,17.27
2019-05-21T19:35:09.406Z,17.87
2019-05-21T19:37:40.810Z,18.37
2019-05-21T19:40:14.201Z,31.87
2019-05-21T19:42:54.448Z,26.27
2019-05-21T19:45:40.197Z,21.77
2019-05-21T19:48:07.787Z,19.45
2019-05-21T19:50:39.108Z,19.48
2019-05-21T19:53:10.369Z,20.85
2019-05-21T19:55:41.809Z,20.55
2019-05-21T19:58:17.300Z,22.17
2019-05-21T20:00:53.713Z,34.60
2019-05-21T20:03:26.691Z,27.60
2019-05-21T20:05:59.335Z,23.77
2019-05-21T20:08:30.666Z,28.87
2019-05-21T20:11:09.375Z,27.95
2019-05-21T20:13:45.596Z,24.37
2019-05-21T20:16:15.181Z,23.32
2019-05-21T20:18:46.371Z,20.85
2019-05-21T20:21:18.621Z,18.70
2019-05-21T20:23:51.307Z,19.80
2019-05-21T20:26:25.083Z,16.75
2019-05-21T20:28:56.669Z,16.77
2019-05-21T20:31:28.839Z,18.48
2019-05-21T20:34:01.273Z,17.10
2019-05-21T20:36:33.085Z,19.02
2019-05-21T20:39:06.771Z,17.82
2019-05-21T20:41:42.259Z,18.05
2019-05-21T20:44:15.233Z,19.80
2019-05-21T20:46:48.493Z,18.85
2019-05-21T20:49:19.626Z,23.55
2019-05-21T20:51:55.281Z,18.98
2019-05-21T20:54:31.521Z,20.45
2019-05-21T20:57:05.790Z,19.98
2019-05-21T20:59:44.087Z,17.80
2019-05-21T21:02:17.411Z,19.98
2019-05-21T21:04:51.899Z,17.15
2019-05-21T21:07:37.575Z,17.37
2019-05-21T21:10:19.817Z,18.98
2019-05-21T21:13:14.805Z,17.92
2019-05-21T21:15:55.914Z,17.85
2019-05-21T21:21:40.008Z,17.10
2019-05-21T21:24:30.584Z,16.48
2019-05-21T21:26:59.861Z,17.55
2019-05-21T21:30:02.373Z,18.55
2019-05-21T21:32:49.544Z,17.12
2019-05-21T21:35:22.044Z,18.05
2019-05-21T21:37:58.396Z,20.00
2019-05-21T21:40:49.015Z,18.77
2019-05-21T21:43:29.031Z,19.45
2019-05-21T21:46:02.453Z,18.32
2019-05-21T21:48:35.580Z,20.80
2019-05-21T21:51:14.159Z,20.40
2019-05-21T21:54:08.337Z,20.90
2019-05-21T21:56:48.437Z,19.70
2019-05-21T21:59:20.825Z,20.90
2019-05-21T22:01:54.875Z,16.65
2019-05-21T22:04:32.440Z,17.80
2019-05-21T22:07:07.611Z,18.25
2019-05-21T22:09:43.167Z,18.67
2019-05-21T22:12:18.658Z,17.80
2019-05-21T22:15:02.615Z,17.52
2019-05-21T22:17:45.521Z,17.73
2019-05-21T22:20:23.410Z,18.20
2019-05-21T22:23:03.196Z,16.50
2019-05-21T22:25:36.336Z,15.58
2019-05-21T22:28:14.638Z,16.62
2019-05-21T22:30:45.825Z,16.80
2019-05-21T22:33:18.357Z,17.32
2019-05-21T22:35:49.700Z,16.93
2019-05-21T22:38:20.990Z,17.20
2019-05-21T22:40:54.953Z,18.42
2019-05-21T22:43:31.092Z,21.35
2019-05-21T22:49:10.954Z,18.67
2019-05-21T22:51:42.473Z,17.42
2019-05-21T22:54:14.539Z,17.42
2019-05-21T22:56:50.973Z,17.90
2019-05-21T22:59:22.774Z,17.80
2019-05-21T23:01:55.669Z,17.07
2019-05-21T23:04:29.800Z,17.20
2019-05-21T23:07:06.047Z,17.07
2019-05-21T23:09:45.574Z,17.17
2019-05-21T23:12:18.781Z,22.98
2019-05-21T23:15:00.521Z,16.82
2019-05-21T23:17:58.217Z,18.42
2019-05-21T23:20:55.560Z,68.65
2019-05-21T23:23:20.782Z,84.85
2019-05-21T23:25:58.629Z,69.90
2019-05-21T23:28:49.658Z,50.65
2019-05-21T23:31:20.154Z,33.35
2019-05-21T23:34:17.723Z,25.85
2019-05-21T23:36:53.171Z,25.55
2019-05-21T23:39:35.043Z,20.52
2019-05-21T23:42:28.323Z,20.52
2019-05-21T23:45:01.697Z,24.12
2019-05-21T23:47:47.626Z,24.35
2019-05-21T23:50:26.943Z,27.85
2019-05-21T23:53:17.531Z,18.82
2019-05-21T23:55:44.882Z,19.25
2019-05-21T23:58:20.547Z,22.15
